sensor_id;sensor_type;location;lat;lon;timestamp;P1;durP1;ratioP1;P2;durP2;ratioP2
75090;SDS011;63674;48.048;8.306;2023-06-01T00:00:05;9.15;;;3.85;;
75090;SDS011;63674;48.048;8.306;2023-06-01T00:02:36;9.93;;;3.72;;
75090;SDS011;63674;48.048;8.306;2023-06-01T00:05:06;9.02;;;4.03;;
75090;SDS011;63674;48.048;8.306;2023-06-01T00:07:35;8.33;;;4.10;;
75090;SDS011;63674;48.048;8.306;2023-06-01T00:10:05;10.15;;;4.65;;
75090;SDS011;63674;48.048;8.306;2023-06-01T00:12:34;9.25;;;4.43;;
75090;SDS011;63674;48.048;8.306;2023-06-01T00:15:03;9.25;;;4.22;;
75090;SDS011;63674;48.048;8.306;2023-06-01T00:17:32;8.57;;;4.20;;
75090;SDS011;63674;48.048;8.306;2023-06-01T00:20:01;10.43;;;4.30;;
75090;SDS011;63674;48.048;8.306;2023-06-01T00:22:36;11.18;;;4.57;;
75090;SDS011;63674;48.048;8.306;2023-06-01T00:25:06;9.90;;;4.18;;
75090;SDS011;63674;48.048;8.306;2023-06-01T00:27:35;10.32;;;4.50;;
75090;SDS011;63674;48.048;8.306;2023-06-01T00:30:04;11.07;;;4.75;;
75090;SDS011;63674;48.048;8.306;2023-06-01T00:32:34;8.07;;;4.25;;
75090;SDS011;63674;48.048;8.306;2023-06-01T00:35:03;9.57;;;4.40;;
75090;SDS011;63674;48.048;8.306;2023-06-01T00:37:32;8.68;;;4.35;;
75090;SDS011;63674;48.048;8.306;2023-06-01T00:40:03;9.32;;;4.82;;
75090;SDS011;63674;48.048;8.306;2023-06-01T00:42:32;9.20;;;4.70;;
75090;SDS011;63674;48.048;8.306;2023-06-01T00:45:01;9.67;;;4.80;;
75090;SDS011;63674;48.048;8.306;2023-06-01T00:47:30;9.95;;;4.72;;
75090;SDS011;63674;48.048;8.306;2023-06-01T00:50:08;8.07;;;4.57;;
75090;SDS011;63674;48.048;8.306;2023-06-01T00:52:38;10.98;;;4.60;;
75090;SDS011;63674;48.048;8.306;2023-06-01T00:55:10;11.27;;;4.75;;
75090;SDS011;63674;48.048;8.306;2023-06-01T00:57:39;9.30;;;4.22;;
75090;SDS011;63674;48.048;8.306;2023-06-01T01:00:10;11.43;;;4.22;;
75090;SDS011;63674;48.048;8.306;2023-06-01T01:02:40;10.90;;;4.55;;
75090;SDS011;63674;48.048;8.306;2023-06-01T01:05:11;9.70;;;4.63;;
75090;SDS011;63674;48.048;8.306;2023-06-01T01:07:47;10.60;;;5.00;;
75090;SDS011;63674;48.048;8.306;2023-06-01T01:10:28;12.05;;;4.43;;
75090;SDS011;63674;48.048;8.306;2023-06-01T01:13:02;9.00;;;4.30;;
75090;SDS011;63674;48.048;8.306;2023-06-01T01:15:40;11.05;;;4.55;;
75090;SDS011;63674;48.048;8.306;2023-06-01T01:18:21;9.70;;;4.90;;
75090;SDS011;63674;48.048;8.306;2023-06-01T01:21:00;10.00;;;4.88;;
75090;SDS011;63674;48.048;8.306;2023-06-01T01:23:54;10.32;;;4.70;;
75090;SDS011;63674;48.048;8.306;2023-06-01T01:26:50;12.68;;;4.32;;
75090;SDS011;63674;48.048;8.306;2023-06-01T01:29:28;8.32;;;3.95;;
75090;SDS011;63674;48.048;8.306;2023-06-01T01:32:00;11.50;;;4.57;;
75090;SDS011;63674;48.048;8.306;2023-06-01T01:34:31;10.15;;;4.70;;
75090;SDS011;63674;48.048;8.306;2023-06-01T01:37:01;12.75;;;4.50;;
75090;SDS011;63674;48.048;8.306;2023-06-01T01:39:30;12.68;;;5.15;;
75090;SDS011;63674;48.048;8.306;2023-06-01T01:41:59;10.32;;;5.18;;
75090;SDS011;63674;48.048;8.306;2023-06-01T01:44:30;10.60;;;4.70;;
75090;SDS011;63674;48.048;8.306;2023-06-01T01:47:02;10.35;;;4.80;;
75090;SDS011;63674;48.048;8.306;2023-06-01T01:49:40;11.33;;;4.90;;
75090;SDS011;63674;48.048;8.306;2023-06-01T01:52:12;9.43;;;4.57;;
75090;SDS011;63674;48.048;8.306;2023-06-01T01:54:46;11.95;;;4.80;;
75090;SDS011;63674;48.048;8.306;2023-06-01T01:57:18;11.38;;;5.53;;
75090;SDS011;63674;48.048;8.306;2023-06-01T01:59:49;11.13;;;4.85;;
75090;SDS011;63674;48.048;8.306;2023-06-01T02:02:18;11.40;;;5.57;;
75090;SDS011;63674;48.048;8.306;2023-06-01T02:04:47;8.82;;;4.70;;
75090;SDS011;63674;48.048;8.306;2023-06-01T02:07:16;10.23;;;4.80;;
75090;SDS011;63674;48.048;8.306;2023-06-01T02:09:44;8.90;;;4.70;;
75090;SDS011;63674;48.048;8.306;2023-06-01T02:12:13;12.02;;;4.70;;
75090;SDS011;63674;48.048;8.306;2023-06-01T02:14:42;8.87;;;4.50;;
75090;SDS011;63674;48.048;8.306;2023-06-01T02:17:12;9.48;;;4.32;;
75090;SDS011;63674;48.048;8.306;2023-06-01T02:19:42;11.52;;;5.32;;
75090;SDS011;63674;48.048;8.306;2023-06-01T02:22:12;10.20;;;5.63;;
75090;SDS011;63674;48.048;8.306;2023-06-01T02:24:40;15.02;;;5.00;;
75090;SDS011;63674;48.048;8.306;2023-06-01T02:27:09;10.77;;;5.22;;
75090;SDS011;63674;48.048;8.306;2023-06-01T02:29:38;12.20;;;4.50;;
75090;SDS011;63674;48.048;8.306;2023-06-01T02:32:08;10.18;;;4.45;;
75090;SDS011;63674;48.048;8.306;2023-06-01T02:34:38;9.27;;;4.00;;
75090;SDS011;63674;48.048;8.306;2023-06-01T02:37:07;8.63;;;4.40;;
75090;SDS011;63674;48.048;8.306;2023-06-01T02:39:36;10.00;;;4.38;;
75090;SDS011;63674;48.048;8.306;2023-06-01T02:42:05;11.05;;;6.20;;
75090;SDS011;63674;48.048;8.306;2023-06-01T02:44:34;13.13;;;5.13;;
75090;SDS011;63674;48.048;8.306;2023-06-01T02:47:03;11.95;;;5.15;;
75090;SDS011;63674;48.048;8.306;2023-06-01T02:49:33;11.20;;;5.30;;
75090;SDS011;63674;48.048;8.306;2023-06-01T02:52:03;9.40;;;4.68;;
75090;SDS011;63674;48.048;8.306;2023-06-01T02:54:32;10.15;;;4.30;;
75090;SDS011;63674;48.048;8.306;2023-06-01T02:57:01;10.65;;;5.00;;
75090;SDS011;63674;48.048;8.306;2023-06-01T02:59:30;13.10;;;5.60;;
75090;SDS011;63674;48.048;8.306;2023-06-01T03:01:59;10.05;;;5.50;;
75090;SDS011;63674;48.048;8.306;2023-06-01T03:04:27;10.75;;;5.40;;
75090;SDS011;63674;48.048;8.306;2023-06-01T03:06:59;11.07;;;5.50;;
75090;SDS011;63674;48.048;8.306;2023-06-01T03:09:30;11.18;;;5.70;;
75090;SDS011;63674;48.048;8.306;2023-06-01T03:11:58;10.88;;;4.78;;
75090;SDS011;63674;48.048;8.306;2023-06-01T03:14:27;9.38;;;4.82;;
75090;SDS011;63674;48.048;8.306;2023-06-01T03:16:56;10.18;;;4.85;;
75090;SDS011;63674;48.048;8.306;2023-06-01T03:19:25;11.18;;;5.28;;
75090;SDS011;63674;48.048;8.306;2023-06-01T03:21:53;11.27;;;5.30;;
75090;SDS011;63674;48.048;8.306;2023-06-01T03:24:23;11.32;;;5.88;;
75090;SDS011;63674;48.048;8.306;2023-06-01T03:26:56;9.00;;;4.90;;
75090;SDS011;63674;48.048;8.306;2023-06-01T03:29:24;10.38;;;5.43;;
75090;SDS011;63674;48.048;8.306;2023-06-01T03:31:53;9.85;;;4.80;;
75090;SDS011;63674;48.048;8.306;2023-06-01T03:34:23;11.70;;;5.30;;
75090;SDS011;63674;48.048;8.306;2023-06-01T03:36:54;11.60;;;5.65;;
75090;SDS011;63674;48.048;8.306;2023-06-01T03:39:23;9.40;;;5.00;;
75090;SDS011;63674;48.048;8.306;2023-06-01T03:41:52;11.23;;;4.88;;
75090;SDS011;63674;48.048;8.306;2023-06-01T03:44:22;10.40;;;4.93;;
75090;SDS011;63674;48.048;8.306;2023-06-01T03:46:51;11.45;;;4.70;;
75090;SDS011;63674;48.048;8.306;2023-06-01T03:49:20;9.32;;;4.95;;
75090;SDS011;63674;48.048;8.306;2023-06-01T03:51:48;9.50;;;4.80;;
75090;SDS011;63674;48.048;8.306;2023-06-01T03:54:19;11.98;;;5.22;;
75090;SDS011;63674;48.048;8.306;2023-06-01T03:56:48;8.35;;;4.70;;
75090;SDS011;63674;48.048;8.306;2023-06-01T03:59:17;10.32;;;5.65;;
75090;SDS011;63674;48.048;8.306;2023-06-01T04:01:47;10.30;;;5.28;;
75090;SDS011;63674;48.048;8.306;2023-06-01T04:04:16;11.68;;;5.68;;
75090;SDS011;63674;48.048;8.306;2023-06-01T04:06:46;8.43;;;4.85;;
75090;SDS011;63674;48.048;8.306;2023-06-01T04:09:16;9.65;;;4.75;;
75090;SDS011;63674;48.048;8.306;2023-06-01T04:11:45;12.00;;;5.70;;
75090;SDS011;63674;48.048;8.306;2023-06-01T04:14:14;11.60;;;5.22;;
75090;SDS011;63674;48.048;8.306;2023-06-01T04:16:42;12.27;;;5.00;;
75090;SDS011;63674;48.048;8.306;2023-06-01T04:19:13;10.27;;;5.20;;
75090;SDS011;63674;48.048;8.306;2023-06-01T04:21:41;14.90;;;5.55;;
75090;SDS011;63674;48.048;8.306;2023-06-01T04:24:11;10.73;;;5.50;;
75090;SDS011;63674;48.048;8.306;2023-06-01T04:26:39;12.63;;;5.45;;
75090;SDS011;63674;48.048;8.306;2023-06-01T04:29:08;10.95;;;5.50;;
75090;SDS011;63674;48.048;8.306;2023-06-01T04:31:38;12.90;;;4.90;;
75090;SDS011;63674;48.048;8.306;2023-06-01T04:34:07;10.13;;;5.45;;
75090;SDS011;63674;48.048;8.306;2023-06-01T04:36:38;10.30;;;5.20;;
75090;SDS011;63674;48.048;8.306;2023-06-01T04:39:07;10.88;;;5.60;;
75090;SDS011;63674;48.048;8.306;2023-06-01T04:41:36;10.57;;;5.75;;
75090;SDS011;63674;48.048;8.306;2023-06-01T04:44:05;10.35;;;5.22;;
75090;SDS011;63674;48.048;8.306;2023-06-01T04:46:35;13.35;;;5.80;;
75090;SDS011;63674;48.048;8.306;2023-06-01T04:49:06;11.77;;;5.30;;
75090;SDS011;63674;48.048;8.306;2023-06-01T04:51:40;10.55;;;5.28;;
75090;SDS011;63674;48.048;8.306;2023-06-01T04:54:09;9.27;;;5.07;;
75090;SDS011;63674;48.048;8.306;2023-06-01T04:56:38;10.30;;;5.60;;
75090;SDS011;63674;48.048;8.306;2023-06-01T04:59:07;9.63;;;5.30;;
75090;SDS011;63674;48.048;8.306;2023-06-01T05:01:35;10.63;;;5.10;;
75090;SDS011;63674;48.048;8.306;2023-06-01T05:04:05;10.23;;;5.85;;
75090;SDS011;63674;48.048;8.306;2023-06-01T05:06:34;11.18;;;5.50;;
75090;SDS011;63674;48.048;8.306;2023-06-01T05:09:04;11.40;;;5.07;;
75090;SDS011;63674;48.048;8.306;2023-06-01T05:11:33;12.43;;;5.40;;
75090;SDS011;63674;48.048;8.306;2023-06-01T05:14:01;12.32;;;5.70;;
75090;SDS011;63674;48.048;8.306;2023-06-01T05:16:30;10.52;;;5.63;;
75090;SDS011;63674;48.048;8.306;2023-06-01T05:18:59;11.15;;;5.60;;
75090;SDS011;63674;48.048;8.306;2023-06-01T05:21:28;13.25;;;6.00;;
75090;SDS011;63674;48.048;8.306;2023-06-01T05:23:58;11.73;;;5.65;;
75090;SDS011;63674;48.048;8.306;2023-06-01T05:26:28;13.57;;;6.32;;
75090;SDS011;63674;48.048;8.306;2023-06-01T05:28:57;11.45;;;6.45;;
75090;SDS011;63674;48.048;8.306;2023-06-01T05:31:25;10.25;;;5.57;;
75090;SDS011;63674;48.048;8.306;2023-06-01T05:33:54;11.02;;;5.57;;
75090;SDS011;63674;48.048;8.306;2023-06-01T05:36:23;9.20;;;5.43;;
75090;SDS011;63674;48.048;8.306;2023-06-01T05:38:52;9.88;;;5.20;;
75090;SDS011;63674;48.048;8.306;2023-06-01T05:41:20;9.60;;;5.05;;
75090;SDS011;63674;48.048;8.306;2023-06-01T05:43:51;10.65;;;5.35;;
75090;SDS011;63674;48.048;8.306;2023-06-01T05:46:20;11.98;;;5.80;;
75090;SDS011;63674;48.048;8.306;2023-06-01T05:48:51;13.35;;;5.82;;
75090;SDS011;63674;48.048;8.306;2023-06-01T05:51:21;12.38;;;5.53;;
75090;SDS011;63674;48.048;8.306;2023-06-01T05:53:50;11.07;;;5.50;;
75090;SDS011;63674;48.048;8.306;2023-06-01T05:56:18;10.55;;;4.85;;
75090;SDS011;63674;48.048;8.306;2023-06-01T05:58:47;9.30;;;5.20;;
75090;SDS011;63674;48.048;8.306;2023-06-01T06:01:21;12.18;;;4.90;;
75090;SDS011;63674;48.048;8.306;2023-06-01T06:03:50;9.25;;;4.78;;
75090;SDS011;63674;48.048;8.306;2023-06-01T06:06:19;10.15;;;5.13;;
75090;SDS011;63674;48.048;8.306;2023-06-01T06:08:50;9.23;;;4.78;;
75090;SDS011;63674;48.048;8.306;2023-06-01T06:11:20;10.77;;;4.83;;
75090;SDS011;63674;48.048;8.306;2023-06-01T06:13:49;10.60;;;4.80;;
75090;SDS011;63674;48.048;8.306;2023-06-01T06:16:18;9.18;;;4.70;;
75090;SDS011;63674;48.048;8.306;2023-06-01T06:18:48;9.27;;;5.00;;
75090;SDS011;63674;48.048;8.306;2023-06-01T06:21:16;9.48;;;4.90;;
75090;SDS011;63674;48.048;8.306;2023-06-01T06:23:46;8.47;;;4.90;;
75090;SDS011;63674;48.048;8.306;2023-06-01T06:26:14;9.90;;;5.18;;
75090;SDS011;63674;48.048;8.306;2023-06-01T06:28:43;9.50;;;4.78;;
75090;SDS011;63674;48.048;8.306;2023-06-01T06:31:12;9.88;;;4.47;;
75090;SDS011;63674;48.048;8.306;2023-06-01T06:33:41;13.30;;;4.88;;
75090;SDS011;63674;48.048;8.306;2023-06-01T06:36:11;9.27;;;4.77;;
75090;SDS011;63674;48.048;8.306;2023-06-01T06:38:39;11.55;;;4.90;;
75090;SDS011;63674;48.048;8.306;2023-06-01T06:41:08;11.77;;;4.75;;
75090;SDS011;63674;48.048;8.306;2023-06-01T06:43:37;9.65;;;4.68;;
75090;SDS011;63674;48.048;8.306;2023-06-01T06:46:09;14.38;;;5.00;;
75090;SDS011;63674;48.048;8.306;2023-06-01T06:48:37;11.80;;;4.43;;
75090;SDS011;63674;48.048;8.306;2023-06-01T06:51:06;9.60;;;4.60;;
75090;SDS011;63674;48.048;8.306;2023-06-01T06:53:36;9.30;;;4.53;;
75090;SDS011;63674;48.048;8.306;2023-06-01T06:56:05;9.23;;;4.28;;
75090;SDS011;63674;48.048;8.306;2023-06-01T06:58:34;8.15;;;4.50;;
75090;SDS011;63674;48.048;8.306;2023-06-01T07:01:03;10.23;;;4.60;;
75090;SDS011;63674;48.048;8.306;2023-06-01T07:03:32;11.35;;;4.90;;
75090;SDS011;63674;48.048;8.306;2023-06-01T07:06:01;8.43;;;4.30;;
75090;SDS011;63674;48.048;8.306;2023-06-01T07:08:30;11.02;;;4.63;;
75090;SDS011;63674;48.048;8.306;2023-06-01T07:11:02;8.75;;;4.53;;
75090;SDS011;63674;48.048;8.306;2023-06-01T07:13:31;7.47;;;4.20;;
75090;SDS011;63674;48.048;8.306;2023-06-01T07:16:02;9.60;;;4.53;;
75090;SDS011;63674;48.048;8.306;2023-06-01T07:18:31;11.88;;;5.07;;
75090;SDS011;63674;48.048;8.306;2023-06-01T07:21:01;10.68;;;4.75;;
75090;SDS011;63674;48.048;8.306;2023-06-01T07:23:29;10.40;;;4.60;;
75090;SDS011;63674;48.048;8.306;2023-06-01T07:25:58;12.13;;;4.93;;
75090;SDS011;63674;48.048;8.306;2023-06-01T07:28:28;11.02;;;4.70;;
75090;SDS011;63674;48.048;8.306;2023-06-01T07:30:59;11.15;;;4.40;;
75090;SDS011;63674;48.048;8.306;2023-06-01T07:33:30;10.15;;;4.70;;
75090;SDS011;63674;48.048;8.306;2023-06-01T07:36:00;10.77;;;4.90;;
75090;SDS011;63674;48.048;8.306;2023-06-01T07:38:30;8.53;;;4.30;;
75090;SDS011;63674;48.048;8.306;2023-06-01T07:40:59;8.60;;;4.30;;
75090;SDS011;63674;48.048;8.306;2023-06-01T07:43:29;10.77;;;4.63;;
75090;SDS011;63674;48.048;8.306;2023-06-01T07:45:58;9.50;;;4.57;;
75090;SDS011;63674;48.048;8.306;2023-06-01T07:48:27;10.30;;;4.55;;
75090;SDS011;63674;48.048;8.306;2023-06-01T07:51:02;10.40;;;4.07;;
75090;SDS011;63674;48.048;8.306;2023-06-01T07:53:32;9.23;;;4.53;;
75090;SDS011;63674;48.048;8.306;2023-06-01T07:56:00;10.05;;;4.40;;
75090;SDS011;63674;48.048;8.306;2023-06-01T07:58:31;11.00;;;4.30;;
75090;SDS011;63674;48.048;8.306;2023-06-01T08:00:59;10.98;;;4.28;;
75090;SDS011;63674;48.048;8.306;2023-06-01T08:03:29;8.37;;;4.20;;
75090;SDS011;63674;48.048;8.306;2023-06-01T08:06:00;10.40;;;4.88;;
75090;SDS011;63674;48.048;8.306;2023-06-01T08:08:29;11.35;;;4.30;;
75090;SDS011;63674;48.048;8.306;2023-06-01T08:10:58;9.43;;;4.85;;
75090;SDS011;63674;48.048;8.306;2023-06-01T08:13:27;9.93;;;4.65;;
75090;SDS011;63674;48.048;8.306;2023-06-01T08:15:57;9.63;;;4.57;;
75090;SDS011;63674;48.048;8.306;2023-06-01T08:18:27;11.23;;;4.80;;
75090;SDS011;63674;48.048;8.306;2023-06-01T08:20:56;9.80;;;4.40;;
75090;SDS011;63674;48.048;8.306;2023-06-01T08:23:26;9.00;;;4.78;;
75090;SDS011;63674;48.048;8.306;2023-06-01T08:25:56;9.38;;;4.78;;
75090;SDS011;63674;48.048;8.306;2023-06-01T08:28:25;11.97;;;4.90;;
75090;SDS011;63674;48.048;8.306;2023-06-01T08:30:54;11.15;;;4.60;;
75090;SDS011;63674;48.048;8.306;2023-06-01T08:33:24;9.60;;;4.43;;
75090;SDS011;63674;48.048;8.306;2023-06-01T08:35:55;9.60;;;4.70;;
75090;SDS011;63674;48.048;8.306;2023-06-01T08:38:24;8.65;;;4.50;;
75090;SDS011;63674;48.048;8.306;2023-06-01T08:40:58;9.97;;;4.60;;
75090;SDS011;63674;48.048;8.306;2023-06-01T08:43:39;11.88;;;4.95;;
75090;SDS011;63674;48.048;8.306;2023-06-01T08:46:30;9.95;;;4.72;;
75090;SDS011;63674;48.048;8.306;2023-06-01T08:49:02;10.77;;;4.72;;
75090;SDS011;63674;48.048;8.306;2023-06-01T08:51:33;13.32;;;5.68;;
75090;SDS011;63674;48.048;8.306;2023-06-01T08:54:05;11.50;;;4.53;;
75090;SDS011;63674;48.048;8.306;2023-06-01T08:56:36;9.75;;;4.32;;
75090;SDS011;63674;48.048;8.306;2023-06-01T08:59:09;10.50;;;4.55;;
75090;SDS011;63674;48.048;8.306;2023-06-01T09:01:40;8.82;;;4.90;;
75090;SDS011;63674;48.048;8.306;2023-06-01T09:04:13;10.63;;;4.70;;
75090;SDS011;63674;48.048;8.306;2023-06-01T09:06:42;10.30;;;4.43;;
75090;SDS011;63674;48.048;8.306;2023-06-01T09:09:11;9.18;;;4.38;;
75090;SDS011;63674;48.048;8.306;2023-06-01T09:11:40;11.20;;;4.82;;
75090;SDS011;63674;48.048;8.306;2023-06-01T09:14:19;8.80;;;4.38;;
75090;SDS011;63674;48.048;8.306;2023-06-01T09:16:49;11.48;;;4.90;;
75090;SDS011;63674;48.048;8.306;2023-06-01T09:19:20;10.17;;;4.70;;
75090;SDS011;63674;48.048;8.306;2023-06-01T09:21:55;9.30;;;4.30;;
75090;SDS011;63674;48.048;8.306;2023-06-01T09:24:28;11.45;;;4.88;;
75090;SDS011;63674;48.048;8.306;2023-06-01T09:27:01;10.23;;;4.95;;
75090;SDS011;63674;48.048;8.306;2023-06-01T09:29:30;8.50;;;4.30;;
75090;SDS011;63674;48.048;8.306;2023-06-01T09:31:59;9.40;;;4.37;;
75090;SDS011;63674;48.048;8.306;2023-06-01T09:34:30;9.13;;;4.70;;
75090;SDS011;63674;48.048;8.306;2023-06-01T09:36:58;11.57;;;4.10;;
75090;SDS011;63674;48.048;8.306;2023-06-01T09:39:34;10.65;;;4.60;;
75090;SDS011;63674;48.048;8.306;2023-06-01T09:42:03;11.25;;;4.60;;
75090;SDS011;63674;48.048;8.306;2023-06-01T09:44:34;7.60;;;4.23;;
75090;SDS011;63674;48.048;8.306;2023-06-01T09:47:05;10.60;;;4.32;;
75090;SDS011;63674;48.048;8.306;2023-06-01T09:49:40;9.38;;;4.70;;
75090;SDS011;63674;48.048;8.306;2023-06-01T09:52:11;11.35;;;4.68;;
75090;SDS011;63674;48.048;8.306;2023-06-01T09:54:44;9.23;;;4.47;;
75090;SDS011;63674;48.048;8.306;2023-06-01T09:57:19;8.30;;;4.20;;
75090;SDS011;63674;48.048;8.306;2023-06-01T10:00:17;8.48;;;4.82;;
75090;SDS011;63674;48.048;8.306;2023-06-01T10:02:51;8.05;;;4.32;;
75090;SDS011;63674;48.048;8.306;2023-06-01T10:05:21;11.40;;;4.13;;
75090;SDS011;63674;48.048;8.306;2023-06-01T10:07:51;10.80;;;4.40;;
75090;SDS011;63674;48.048;8.306;2023-06-01T10:10:20;8.13;;;4.40;;
75090;SDS011;63674;48.048;8.306;2023-06-01T10:12:49;9.30;;;4.30;;
75090;SDS011;63674;48.048;8.306;2023-06-01T10:15:18;9.73;;;4.50;;
75090;SDS011;63674;48.048;8.306;2023-06-01T10:17:51;9.50;;;4.38;;
75090;SDS011;63674;48.048;8.306;2023-06-01T10:20:23;8.65;;;3.70;;
75090;SDS011;63674;48.048;8.306;2023-06-01T10:22:52;8.90;;;4.53;;
75090;SDS011;63674;48.048;8.306;2023-06-01T10:25:42;8.88;;;4.13;;
75090;SDS011;63674;48.048;8.306;2023-06-01T10:28:15;8.95;;;4.55;;
75090;SDS011;63674;48.048;8.306;2023-06-01T10:30:45;9.32;;;4.78;;
75090;SDS011;63674;48.048;8.306;2023-06-01T10:33:13;11.35;;;4.88;;
75090;SDS011;63674;48.048;8.306;2023-06-01T10:35:52;10.17;;;4.50;;
75090;SDS011;63674;48.048;8.306;2023-06-01T10:38:22;9.02;;;4.53;;
75090;SDS011;63674;48.048;8.306;2023-06-01T10:40:53;12.20;;;4.20;;
75090;SDS011;63674;48.048;8.306;2023-06-01T10:43:58;10.68;;;4.25;;
75090;SDS011;63674;48.048;8.306;2023-06-01T10:46:37;9.23;;;4.53;;
75090;SDS011;63674;48.048;8.306;2023-06-01T10:49:11;8.37;;;4.10;;
75090;SDS011;63674;48.048;8.306;2023-06-01T10:51:41;10.73;;;4.43;;
75090;SDS011;63674;48.048;8.306;2023-06-01T10:54:26;11.43;;;4.45;;
75090;SDS011;63674;48.048;8.306;2023-06-01T11:02:49;9.40;;;4.43;;
75090;SDS011;63674;48.048;8.306;2023-06-01T11:05:33;7.68;;;4.38;;
75090;SDS011;63674;48.048;8.306;2023-06-01T11:14:36;9.15;;;4.32;;
75090;SDS011;63674;48.048;8.306;2023-06-01T11:17:25;8.63;;;4.63;;
75090;SDS011;63674;48.048;8.306;2023-06-01T11:20:00;9.15;;;4.00;;
75090;SDS011;63674;48.048;8.306;2023-06-01T11:22:36;7.80;;;4.07;;
75090;SDS011;63674;48.048;8.306;2023-06-01T11:25:08;7.53;;;3.90;;
75090;SDS011;63674;48.048;8.306;2023-06-01T11:27:43;8.48;;;4.28;;
75090;SDS011;63674;48.048;8.306;2023-06-01T11:30:18;8.50;;;4.10;;
75090;SDS011;63674;48.048;8.306;2023-06-01T11:32:50;9.65;;;4.35;;
75090;SDS011;63674;48.048;8.306;2023-06-01T11:35:21;10.43;;;4.47;;
75090;SDS011;63674;48.048;8.306;2023-06-01T11:37:54;7.07;;;3.92;;
75090;SDS011;63674;48.048;8.306;2023-06-01T11:40:26;8.55;;;4.20;;
75090;SDS011;63674;48.048;8.306;2023-06-01T11:43:03;8.27;;;4.17;;
75090;SDS011;63674;48.048;8.306;2023-06-01T11:45:33;7.68;;;4.35;;
75090;SDS011;63674;48.048;8.306;2023-06-01T11:48:09;9.38;;;4.35;;
75090;SDS011;63674;48.048;8.306;2023-06-01T11:50:45;9.02;;;4.50;;
75090;SDS011;63674;48.048;8.306;2023-06-01T11:53:14;9.30;;;4.05;;
75090;SDS011;63674;48.048;8.306;2023-06-01T11:55:50;8.83;;;4.40;;
75090;SDS011;63674;48.048;8.306;2023-06-01T11:58:22;10.55;;;4.53;;
75090;SDS011;63674;48.048;8.306;2023-06-01T12:00:51;9.02;;;4.10;;
75090;SDS011;63674;48.048;8.306;2023-06-01T12:03:21;8.27;;;4.25;;
75090;SDS011;63674;48.048;8.306;2023-06-01T12:05:50;8.38;;;3.95;;
75090;SDS011;63674;48.048;8.306;2023-06-01T12:08:20;8.17;;;3.80;;
75090;SDS011;63674;48.048;8.306;2023-06-01T12:10:51;9.27;;;4.30;;
75090;SDS011;63674;48.048;8.306;2023-06-01T12:13:20;10.90;;;4.13;;
75090;SDS011;63674;48.048;8.306;2023-06-01T12:15:50;8.18;;;3.90;;
75090;SDS011;63674;48.048;8.306;2023-06-01T12:18:28;8.25;;;4.30;;
75090;SDS011;63674;48.048;8.306;2023-06-01T12:20:58;10.80;;;4.30;;
75090;SDS011;63674;48.048;8.306;2023-06-01T12:23:28;9.98;;;4.20;;
75090;SDS011;63674;48.048;8.306;2023-06-01T12:25:58;10.93;;;4.10;;
75090;SDS011;63674;48.048;8.306;2023-06-01T12:28:28;9.32;;;4.10;;
75090;SDS011;63674;48.048;8.306;2023-06-01T12:31:09;8.95;;;3.97;;
75090;SDS011;63674;48.048;8.306;2023-06-01T12:33:40;7.83;;;4.20;;
75090;SDS011;63674;48.048;8.306;2023-06-01T12:36:32;10.18;;;3.90;;
75090;SDS011;63674;48.048;8.306;2023-06-01T12:39:03;8.45;;;3.83;;
75090;SDS011;63674;48.048;8.306;2023-06-01T12:41:33;9.02;;;3.83;;
75090;SDS011;63674;48.048;8.306;2023-06-01T12:44:03;8.93;;;3.67;;
75090;SDS011;63674;48.048;8.306;2023-06-01T12:46:32;8.73;;;4.07;;
75090;SDS011;63674;48.048;8.306;2023-06-01T12:49:11;9.18;;;4.10;;
75090;SDS011;63674;48.048;8.306;2023-06-01T12:51:41;9.35;;;4.55;;
75090;SDS011;63674;48.048;8.306;2023-06-01T12:54:10;9.88;;;3.90;;
75090;SDS011;63674;48.048;8.306;2023-06-01T12:56:40;10.18;;;4.00;;
75090;SDS011;63674;48.048;8.306;2023-06-01T12:59:09;7.53;;;3.90;;
75090;SDS011;63674;48.048;8.306;2023-06-01T13:01:37;7.43;;;3.58;;
75090;SDS011;63674;48.048;8.306;2023-06-01T13:04:07;7.40;;;4.07;;
75090;SDS011;63674;48.048;8.306;2023-06-01T13:06:35;8.73;;;3.80;;
75090;SDS011;63674;48.048;8.306;2023-06-01T13:09:05;6.97;;;3.78;;
75090;SDS011;63674;48.048;8.306;2023-06-01T13:11:34;9.13;;;3.67;;
75090;SDS011;63674;48.048;8.306;2023-06-01T13:14:04;7.50;;;3.65;;
75090;SDS011;63674;48.048;8.306;2023-06-01T13:16:33;9.07;;;3.63;;
75090;SDS011;63674;48.048;8.306;2023-06-01T13:19:02;7.53;;;3.50;;
75090;SDS011;63674;48.048;8.306;2023-06-01T13:21:31;8.10;;;3.92;;
75090;SDS011;63674;48.048;8.306;2023-06-01T13:24:00;7.80;;;3.50;;
75090;SDS011;63674;48.048;8.306;2023-06-01T13:26:30;7.80;;;3.53;;
75090;SDS011;63674;48.048;8.306;2023-06-01T13:28:59;7.18;;;3.65;;
75090;SDS011;63674;48.048;8.306;2023-06-01T13:31:30;7.75;;;3.45;;
75090;SDS011;63674;48.048;8.306;2023-06-01T13:33:59;7.15;;;3.25;;
75090;SDS011;63674;48.048;8.306;2023-06-01T13:36:28;7.77;;;3.50;;
75090;SDS011;63674;48.048;8.306;2023-06-01T13:38:57;8.48;;;3.72;;
75090;SDS011;63674;48.048;8.306;2023-06-01T13:41:27;7.45;;;3.63;;
75090;SDS011;63674;48.048;8.306;2023-06-01T13:43:56;8.50;;;3.60;;
75090;SDS011;63674;48.048;8.306;2023-06-01T13:46:25;7.88;;;3.67;;
75090;SDS011;63674;48.048;8.306;2023-06-01T13:48:55;7.23;;;3.77;;
75090;SDS011;63674;48.048;8.306;2023-06-01T13:51:25;7.18;;;3.60;;
75090;SDS011;63674;48.048;8.306;2023-06-01T13:53:54;13.60;;;4.25;;
75090;SDS011;63674;48.048;8.306;2023-06-01T13:56:23;8.00;;;3.70;;
75090;SDS011;63674;48.048;8.306;2023-06-01T13:58:51;7.70;;;3.50;;
75090;SDS011;63674;48.048;8.306;2023-06-01T14:01:23;8.60;;;3.40;;
75090;SDS011;63674;48.048;8.306;2023-06-01T14:03:51;7.78;;;3.70;;
75090;SDS011;63674;48.048;8.306;2023-06-01T14:06:23;8.55;;;3.55;;
75090;SDS011;63674;48.048;8.306;2023-06-01T14:08:53;8.15;;;3.95;;
75090;SDS011;63674;48.048;8.306;2023-06-01T14:11:21;9.82;;;3.85;;
75090;SDS011;63674;48.048;8.306;2023-06-01T14:13:50;8.00;;;3.60;;
75090;SDS011;63674;48.048;8.306;2023-06-01T14:16:19;11.75;;;3.72;;
75090;SDS011;63674;48.048;8.306;2023-06-01T14:18:48;7.60;;;4.00;;
75090;SDS011;63674;48.048;8.306;2023-06-01T14:21:16;8.23;;;3.88;;
75090;SDS011;63674;48.048;8.306;2023-06-01T14:23:50;9.68;;;3.88;;
75090;SDS011;63674;48.048;8.306;2023-06-01T14:26:18;8.13;;;3.70;;
75090;SDS011;63674;48.048;8.306;2023-06-01T14:28:47;8.75;;;4.35;;
75090;SDS011;63674;48.048;8.306;2023-06-01T14:31:16;9.40;;;4.20;;
75090;SDS011;63674;48.048;8.306;2023-06-01T14:33:46;7.15;;;3.83;;
75090;SDS011;63674;48.048;8.306;2023-06-01T14:36:16;8.25;;;4.00;;
75090;SDS011;63674;48.048;8.306;2023-06-01T14:38:51;12.17;;;4.23;;
75090;SDS011;63674;48.048;8.306;2023-06-01T14:41:20;7.55;;;3.83;;
75090;SDS011;63674;48.048;8.306;2023-06-01T14:43:48;10.35;;;3.88;;
75090;SDS011;63674;48.048;8.306;2023-06-01T14:46:18;8.18;;;4.07;;
75090;SDS011;63674;48.048;8.306;2023-06-01T14:48:48;8.43;;;3.88;;
75090;SDS011;63674;48.048;8.306;2023-06-01T14:51:17;8.97;;;3.70;;
75090;SDS011;63674;48.048;8.306;2023-06-01T14:53:45;6.97;;;3.90;;
75090;SDS011;63674;48.048;8.306;2023-06-01T14:56:17;9.68;;;3.97;;
75090;SDS011;63674;48.048;8.306;2023-06-01T14:58:47;7.68;;;3.85;;
75090;SDS011;63674;48.048;8.306;2023-06-01T15:01:16;6.50;;;3.40;;
75090;SDS011;63674;48.048;8.306;2023-06-01T15:03:45;10.43;;;3.60;;
75090;SDS011;63674;48.048;8.306;2023-06-01T15:06:14;7.85;;;3.70;;
75090;SDS011;63674;48.048;8.306;2023-06-01T15:08:45;9.25;;;3.58;;
75090;SDS011;63674;48.048;8.306;2023-06-01T15:11:14;7.30;;;3.53;;
75090;SDS011;63674;48.048;8.306;2023-06-01T15:13:44;7.03;;;3.67;;